createdAt,value
2018-04-01T00:00:24.122Z,20.5
2018-04-01T00:01:24.121Z,20.75
2018-04-01T00:02:24.136Z,20.75
2018-04-01T00:03:24.121Z,20.5
2018-04-01T00:04:24.121Z,20.75
2018-04-01T00:05:24.110Z,20.75
2018-04-01T00:06:24.109Z,20.5
2018-04-01T00:07:24.120Z,20.75
2018-04-01T00:08:24.112Z,20.75
2018-04-01T00:09:24.137Z,20.5
2018-04-01T00:10:24.092Z,20.75
2018-04-01T00:11:24.100Z,20.75
2018-04-01T00:12:24.141Z,20.5
2018-04-01T00:13:24.119Z,20.75
2018-04-01T00:14:24.130Z,20.5
2018-04-01T00:15:24.497Z,20.5
2018-04-01T00:16:24.109Z,20.75
2018-04-01T00:17:24.120Z,20.5
2018-04-01T00:18:24.117Z,20.5
2018-04-01T00:19:24.146Z,20.5
2018-04-01T00:20:24.124Z,20.5
2018-04-01T00:21:24.093Z,20.5
2018-04-01T00:22:24.117Z,20.5
2018-04-01T00:23:24.109Z,20.5
2018-04-01T00:24:24.152Z,20.5
2018-04-01T00:25:24.138Z,20.5
2018-04-01T00:26:24.124Z,20.5
2018-04-01T00:27:24.100Z,20.5
2018-04-01T00:28:24.103Z,20.5
2018-04-01T00:29:24.112Z,20.5
2018-04-01T00:30:24.123Z,20.5
2018-04-01T00:31:24.098Z,20.5
2018-04-01T00:32:24.112Z,20.5
2018-04-01T00:33:24.111Z,20.5
2018-04-01T00:34:24.089Z,20.5
2018-04-01T00:35:24.115Z,20.5
2018-04-01T00:36:24.086Z,20.5
2018-04-01T00:37:24.116Z,20.5
2018-04-01T00:38:24.138Z,20.5
2018-04-01T00:39:24.111Z,20.5
2018-04-01T00:40:24.148Z,20.5
2018-04-01T00:41:24.109Z,20.5
2018-04-01T00:42:24.089Z,20.5
2018-04-01T00:43:24.097Z,20.5
2018-04-01T00:44:24.087Z,20.5
2018-04-01T00:45:24.104Z,20.5
2018-04-01T00:46:24.183Z,20.5
2018-04-01T00:47:24.109Z,20.5
2018-04-01T00:48:24.094Z,20.5
2018-04-01T00:49:24.090Z,20.5
2018-04-01T00:50:24.090Z,20.5
2018-04-01T00:51:24.143Z,20.5
2018-04-01T00:52:24.112Z,20.5
2018-04-01T00:53:24.108Z,20.5
2018-04-01T00:54:24.081Z,20.5
2018-04-01T00:55:24.128Z,20.5
2018-04-01T00:56:24.079Z,20.5
2018-04-01T00:57:24.080Z,20.5
2018-04-01T00:58:24.103Z,20.5
2018-04-01T00:59:24.101Z,20.5
2018-04-01T01:00:24.113Z,20.5
2018-04-01T01:01:24.081Z,20.5
2018-04-01T01:02:24.098Z,20.5
2018-04-01T01:03:24.090Z,20.5
2018-04-01T01:04:24.095Z,20.5
2018-04-01T01:05:24.102Z,20.5
2018-04-01T01:06:24.089Z,20.5
2018-04-01T01:07:24.098Z,20.5
2018-04-01T01:08:24.083Z,20.5
2018-04-01T01:09:24.117Z,20.5
2018-04-01T01:10:24.353Z,20.5
2018-04-01T01:11:24.134Z,20.5
2018-04-01T01:12:24.086Z,20.5
2018-04-01T01:13:24.095Z,20.5
2018-04-01T01:14:24.069Z,20.5
2018-04-01T01:15:24.133Z,20.5
2018-04-01T01:16:24.089Z,20.5
2018-04-01T01:17:24.133Z,20.5
2018-04-01T01:18:24.067Z,20.5
2018-04-01T01:19:24.110Z,20.5
2018-04-01T01:20:24.491Z,20.5
2018-04-01T01:21:24.105Z,20.5
2018-04-01T01:22:24.079Z,20.5
2018-04-01T01:23:24.089Z,20.5
2018-04-01T01:24:24.088Z,20.5
2018-04-01T01:25:24.113Z,20.5
2018-04-01T01:26:24.099Z,20.5
2018-04-01T01:27:24.086Z,20.5
2018-04-01T01:28:24.082Z,20.5
2018-04-01T01:29:24.074Z,20.5
2018-04-01T01:30:24.129Z,20.25
2018-04-01T01:31:24.075Z,20.5
2018-04-01T01:32:24.085Z,20.5
2018-04-01T01:33:24.100Z,20.25
2018-04-01T01:34:24.068Z,20.5
2018-04-01T01:35:24.109Z,20.5
2018-04-01T01:36:24.060Z,20.25
2018-04-01T01:37:24.102Z,20.5
2018-04-01T01:38:24.099Z,20.5
2018-04-01T01:39:24.057Z,20.25
2018-04-01T01:40:24.096Z,20.5
2018-04-01T01:41:24.071Z,20.5
2018-04-01T01:42:24.068Z,20.25
2018-04-01T01:43:24.092Z,20.5
2018-04-01T01:44:24.075Z,20.5
2018-04-01T01:45:24.090Z,20.25
2018-04-01T01:46:24.058Z,20.5
2018-04-01T01:47:24.069Z,20.5
2018-04-01T01:48:24.177Z,20.25
2018-04-01T01:49:24.067Z,20.5
2018-04-01T01:50:24.086Z,20.5
2018-04-01T01:51:24.096Z,20.25
2018-04-01T01:52:24.089Z,20.5
2018-04-01T01:53:24.186Z,20.5
2018-04-01T01:54:24.159Z,20.25
2018-04-01T01:55:24.068Z,20.25
2018-04-01T01:56:24.088Z,20.25
2018-04-01T01:57:24.099Z,20.25
2018-04-01T01:58:24.092Z,20.5
2018-04-01T01:59:24.072Z,20.25
2018-04-01T02:00:24.094Z,20.25
2018-04-01T02:01:24.074Z,20.25
2018-04-01T02:02:24.069Z,20.25
2018-04-01T02:03:24.082Z,20.25
2018-04-01T02:04:24.086Z,20.25
2018-04-01T02:05:24.087Z,20.25
2018-04-01T02:06:24.051Z,20.25
2018-04-01T02:07:24.055Z,20.25
2018-04-01T02:08:24.091Z,20.25
2018-04-01T02:09:24.086Z,20.25
2018-04-01T02:10:24.100Z,20.25
2018-04-01T02:11:24.080Z,20.25
2018-04-01T02:12:24.138Z,20.25
2018-04-01T02:13:24.069Z,20.25
2018-04-01T02:14:24.062Z,20.25
2018-04-01T02:15:24.109Z,20.25
2018-04-01T02:16:24.064Z,20.25
2018-04-01T02:17:24.073Z,20.25
2018-04-01T02:18:24.084Z,20.25
2018-04-01T02:19:24.158Z,20.25
2018-04-01T02:20:24.096Z,20.25
2018-04-01T02:21:24.079Z,20.25
2018-04-01T02:22:24.081Z,20.25
2018-04-01T02:23:24.069Z,20.25
2018-04-01T02:24:24.081Z,20.25
2018-04-01T02:25:24.076Z,20.25
2018-04-01T02:26:24.113Z,20.25
2018-04-01T02:27:24.078Z,20.25
2018-04-01T02:28:24.152Z,20.25
2018-04-01T02:29:24.052Z,20.25
2018-04-01T02:30:24.086Z,20.25
2018-04-01T02:31:24.365Z,20.25
2018-04-01T02:32:24.099Z,20.25
2018-04-01T02:33:24.076Z,20.25
2018-04-01T02:34:24.089Z,20.25
2018-04-01T02:35:24.065Z,20.25
2018-04-01T02:36:24.128Z,20.25
2018-04-01T02:37:24.084Z,20.25
2018-04-01T02:38:24.115Z,20.25
2018-04-01T02:39:24.093Z,20.25
2018-04-01T02:40:24.112Z,20.25
2018-04-01T02:41:24.094Z,20.25
2018-04-01T02:42:24.086Z,20.25
2018-04-01T02:43:24.101Z,20.25
2018-04-01T02:44:24.071Z,20.25
2018-04-01T02:45:24.051Z,20.25
2018-04-01T02:46:24.087Z,20.25
2018-04-01T02:47:24.124Z,20.25
2018-04-01T02:48:24.068Z,20.25
2018-04-01T02:49:24.068Z,20.25
2018-04-01T02:50:24.127Z,20.25
2018-04-01T02:51:24.088Z,20.25
2018-04-01T02:52:24.075Z,20.25
2018-04-01T02:53:24.072Z,20.25
2018-04-01T02:54:24.058Z,20.25
2018-04-01T02:55:24.074Z,20.25
2018-04-01T02:56:24.071Z,20.25
2018-04-01T02:57:24.094Z,20.25
2018-04-01T02:58:24.103Z,20.25
2018-04-01T02:59:24.043Z,20.25
2018-04-01T03:00:24.035Z,20.25
2018-04-01T03:01:24.068Z,20.25
2018-04-01T03:02:24.086Z,20.25
2018-04-01T03:03:24.056Z,20.25
2018-04-01T03:04:24.062Z,20.25
2018-04-01T03:05:24.077Z,20.25
2018-04-01T03:06:24.043Z,20.25
2018-04-01T03:07:24.058Z,20.25
2018-04-01T03:08:24.056Z,20.25
2018-04-01T03:09:24.046Z,20.25
2018-04-01T03:10:24.077Z,20.25
2018-04-01T03:11:24.054Z,20.25
2018-04-01T03:12:24.048Z,20.25
2018-04-01T03:13:24.054Z,20.25
2018-04-01T03:14:24.057Z,20.25
2018-04-01T03:15:24.074Z,20.25
2018-04-01T03:16:24.082Z,20.25
2018-04-01T03:17:24.063Z,20.25
2018-04-01T03:18:24.057Z,20
2018-04-01T03:19:24.067Z,20.25
2018-04-01T03:20:24.056Z,20.25
2018-04-01T03:21:24.121Z,20
2018-04-01T03:22:24.049Z,20.25
2018-04-01T03:23:24.075Z,20.25
2018-04-01T03:24:24.061Z,20
2018-04-01T03:25:24.050Z,20.25
2018-04-01T03:26:24.088Z,20.25
2018-04-01T03:27:24.075Z,20
2018-04-01T03:28:24.075Z,20.25
2018-04-01T03:29:24.044Z,20
2018-04-01T03:30:24.068Z,20
2018-04-01T03:31:24.071Z,20.25
2018-04-01T03:32:24.054Z,20.25
2018-04-01T03:33:24.046Z,20
2018-04-01T03:34:24.047Z,20.25
2018-04-01T03:35:24.057Z,20.25
2018-04-01T03:36:24.045Z,20
2018-04-01T03:37:24.064Z,20
2018-04-01T03:38:24.062Z,20
2018-04-01T03:39:24.032Z,20
2018-04-01T03:40:24.044Z,20
2018-04-01T03:41:24.080Z,20
2018-04-01T03:42:24.062Z,20
2018-04-01T03:43:24.058Z,20
2018-04-01T03:44:24.052Z,20
2018-04-01T03:45:24.031Z,20
2018-04-01T03:46:24.054Z,20
2018-04-01T03:47:24.036Z,20
2018-04-01T03:48:24.028Z,20
2018-04-01T03:49:24.048Z,20
2018-04-01T03:50:24.106Z,20
2018-04-01T03:51:24.044Z,20
2018-04-01T03:52:24.128Z,20
2018-04-01T03:53:24.072Z,20
2018-04-01T03:54:24.149Z,20
2018-04-01T03:55:24.156Z,20
2018-04-01T03:56:24.026Z,20
2018-04-01T03:57:24.036Z,20
2018-04-01T03:58:24.086Z,20.25
2018-04-01T03:59:24.036Z,20
2018-04-01T04:00:24.212Z,20
2018-04-01T04:01:24.058Z,20
2018-04-01T04:02:24.037Z,20
2018-04-01T04:03:24.045Z,20
2018-04-01T04:04:24.069Z,20
2018-04-01T04:05:24.049Z,20
2018-04-01T04:06:24.034Z,20
2018-04-01T04:07:24.040Z,20
2018-04-01T04:08:24.088Z,20
2018-04-01T04:09:24.012Z,20
2018-04-01T04:10:24.018Z,20
2018-04-01T04:11:24.103Z,20
2018-04-01T04:12:24.041Z,20
2018-04-01T04:13:24.034Z,20
2018-04-01T04:14:24.023Z,20
2018-04-01T04:15:24.043Z,20
2018-04-01T04:16:24.041Z,20
2018-04-01T04:17:24.237Z,20
2018-04-01T04:18:24.046Z,20.25
2018-04-01T04:19:24.046Z,20.25
2018-04-01T04:20:24.044Z,20.25
2018-04-01T04:21:24.065Z,20.25
2018-04-01T04:22:24.073Z,20.25
2018-04-01T04:23:24.176Z,20.25
2018-04-01T04:24:24.034Z,20.25
2018-04-01T04:25:24.030Z,20.25
2018-04-01T04:26:24.042Z,20.25
2018-04-01T04:27:24.046Z,20.25
2018-04-01T04:28:24.044Z,20.25
2018-04-01T04:29:24.029Z,20.25
2018-04-01T04:30:24.001Z,20.25
2018-04-01T04:31:24.065Z,20.25
2018-04-01T04:32:24.045Z,20.25
2018-04-01T04:33:24.036Z,20.25
2018-04-01T04:34:24.011Z,20.25
2018-04-01T04:35:24.048Z,20.5
2018-04-01T04:36:24.009Z,20.5
2018-04-01T04:37:24.038Z,20.5
2018-04-01T04:38:24.031Z,20.5
2018-04-01T04:39:24.000Z,20.5
2018-04-01T04:40:24.050Z,20.5
2018-04-01T04:41:24.021Z,20.5
2018-04-01T04:42:24.035Z,20.5
2018-04-01T04:43:24.029Z,20.5
2018-04-01T04:44:24.067Z,20.5
2018-04-01T04:45:24.026Z,20.5
2018-04-01T04:46:24.017Z,20.5
2018-04-01T04:47:24.011Z,20.5
2018-04-01T04:48:24.021Z,20.5
2018-04-01T04:49:24.068Z,20.5
2018-04-01T04:50:24.007Z,20.5
2018-04-01T04:51:24.014Z,20.5
2018-04-01T04:52:24.045Z,20.5
2018-04-01T04:53:24.030Z,20.5
2018-04-01T04:54:24.093Z,20.5
2018-04-01T04:55:24.027Z,20.5
2018-04-01T04:56:24.131Z,20.75
2018-04-01T04:57:24.016Z,20.75
2018-04-01T04:58:24.026Z,20.75
2018-04-01T04:59:24.015Z,20.75
2018-04-01T05:00:24.025Z,20.75
2018-04-01T05:01:24.013Z,20.75
2018-04-01T05:02:24.018Z,20.75
2018-04-01T05:03:23.994Z,20.75
2018-04-01T05:04:23.998Z,20.75
2018-04-01T05:05:24.021Z,20.75
2018-04-01T05:06:24.027Z,20.75
2018-04-01T05:07:24.036Z,20.75
2018-04-01T05:08:24.176Z,20.75
2018-04-01T05:09:24.037Z,20.75
2018-04-01T05:10:24.011Z,20.75
2018-04-01T05:11:24.031Z,20.75
2018-04-01T05:12:24.022Z,20.75
2018-04-01T05:13:24.004Z,20.75
2018-04-01T05:14:24.035Z,20.75
2018-04-01T05:15:24.012Z,20.75
2018-04-01T05:16:24.025Z,20.75
2018-04-01T05:17:24.035Z,20.75
2018-04-01T05:18:24.016Z,21
2018-04-01T05:19:24.066Z,21
2018-04-01T05:20:24.024Z,21
2018-04-01T05:21:23.997Z,21
2018-04-01T05:22:24.091Z,21
2018-04-01T05:23:24.020Z,21
2018-04-01T05:24:24.006Z,21
2018-04-01T05:25:24.080Z,21
2018-04-01T05:26:24.025Z,21
2018-04-01T05:27:24.017Z,21
2018-04-01T05:28:23.981Z,21
2018-04-01T05:29:24.038Z,21
2018-04-01T05:30:24.027Z,21
2018-04-01T05:31:24.009Z,21
2018-04-01T05:32:24.000Z,21
2018-04-01T05:33:24.053Z,21
2018-04-01T05:34:24.032Z,21
2018-04-01T05:35:24.026Z,21
2018-04-01T05:36:24.021Z,21
2018-04-01T05:37:23.999Z,21
2018-04-01T05:38:24.004Z,21
2018-04-01T05:39:23.993Z,21
2018-04-01T05:40:24.110Z,21
2018-04-01T05:41:24.038Z,21
2018-04-01T05:42:23.994Z,21
2018-04-01T05:43:23.986Z,21
2018-04-01T05:44:24.040Z,21
2018-04-01T05:45:24.045Z,21
2018-04-01T05:46:23.993Z,21
2018-04-01T05:47:24.075Z,21
2018-04-01T05:48:24.005Z,21
2018-04-01T05:49:24.024Z,21
2018-04-01T05:50:24.036Z,21.25
2018-04-01T05:51:24.021Z,21.25
2018-04-01T05:52:24.021Z,21.25
2018-04-01T05:53:24.022Z,21.25
2018-04-01T05:54:24.000Z,21.25
2018-04-01T05:55:24.089Z,21.25
2018-04-01T05:56:24.174Z,21.25
2018-04-01T05:57:23.996Z,21.25
2018-04-01T05:58:24.020Z,21.25
2018-04-01T05:59:24.016Z,21.25
2018-04-01T06:00:23.987Z,21.25
2018-04-01T06:01:23.993Z,21.25
2018-04-01T06:02:23.996Z,21.25
2018-04-01T06:03:24.009Z,21.25
2018-04-01T06:04:23.985Z,21.25
2018-04-01T06:05:23.999Z,21.25
2018-04-01T06:06:24.009Z,21.25
2018-04-01T06:07:24.026Z,21.25
2018-04-01T06:08:24.002Z,21.25
2018-04-01T06:09:24.009Z,21.25
2018-04-01T06:10:23.982Z,21.25
2018-04-01T06:11:24.002Z,21.25
2018-04-01T06:12:23.982Z,21.25
2018-04-01T06:13:23.990Z,21.25
2018-04-01T06:14:24.025Z,21.25
2018-04-01T06:15:24.005Z,21.25
2018-04-01T06:16:23.992Z,21.25
2018-04-01T06:17:23.985Z,21.25
2018-04-01T06:18:23.996Z,21.25
2018-04-01T06:19:23.972Z,21.25
2018-04-01T06:20:24.021Z,21.25
2018-04-01T06:21:23.992Z,21.25
2018-04-01T06:22:24.013Z,21.25
2018-04-01T06:23:24.014Z,21.25
2018-04-01T06:24:23.987Z,21.25
2018-04-01T06:25:24.000Z,21.25
2018-04-01T06:26:23.988Z,21.25
2018-04-01T06:27:24.057Z,21.25
2018-04-01T06:28:24.005Z,21.25
2018-04-01T06:29:23.987Z,21.25
2018-04-01T06:30:24.041Z,21.25
2018-04-01T06:31:23.982Z,21.25
2018-04-01T06:32:23.998Z,21.25
2018-04-01T06:33:23.979Z,21.25
2018-04-01T06:34:24.009Z,21.25
2018-04-01T06:35:24.017Z,21.5
2018-04-01T06:36:23.966Z,21.25
2018-04-01T06:37:23.987Z,21.5
2018-04-01T06:38:24.027Z,21.5
2018-04-01T06:39:24.009Z,21.25
2018-04-01T06:40:24.163Z,21.5
2018-04-01T06:41:24.000Z,21.5
2018-04-01T06:42:24.010Z,21.5
2018-04-01T06:43:24.000Z,21.5
2018-04-01T06:44:24.002Z,21.5
2018-04-01T06:45:24.139Z,21.5
2018-04-01T06:46:24.005Z,21.5
2018-04-01T06:47:24.005Z,21.5
2018-04-01T06:48:23.983Z,21.5
2018-04-01T06:49:24.000Z,21.5
2018-04-01T06:50:23.969Z,21.5
2018-04-01T06:51:24.058Z,21.5
2018-04-01T06:52:23.988Z,21.5
2018-04-01T06:53:23.982Z,21.5
2018-04-01T06:54:23.987Z,21.5
2018-04-01T06:55:23.999Z,21.5
2018-04-01T06:56:24.068Z,21.5
2018-04-01T06:57:24.007Z,21.5
2018-04-01T06:58:24.217Z,21.5
2018-04-01T06:59:23.977Z,21.5
2018-04-01T07:00:24.009Z,21.5
2018-04-01T07:01:24.024Z,21.5
2018-04-01T07:02:24.064Z,21.5
2018-04-01T07:03:24.008Z,21.5
2018-04-01T07:04:23.957Z,21.5
2018-04-01T07:05:23.966Z,21.25
2018-04-01T07:06:24.040Z,21.25
2018-04-01T07:07:23.994Z,21.25
2018-04-01T07:08:23.962Z,21.25
2018-04-01T07:09:23.966Z,21.25
2018-04-01T07:10:23.984Z,21.25
2018-04-01T07:11:24.020Z,21.25
2018-04-01T07:12:23.991Z,21.25
2018-04-01T07:13:23.983Z,21.25
2018-04-01T07:14:23.992Z,21.25
2018-04-01T07:15:23.985Z,21.25
2018-04-01T07:16:23.986Z,21.25
2018-04-01T07:17:23.966Z,21.25
2018-04-01T07:18:23.986Z,21.5
2018-04-01T07:19:24.002Z,21.5
2018-04-01T07:20:23.978Z,21.5
2018-04-01T07:21:23.990Z,21.5
2018-04-01T07:22:23.964Z,21.5
2018-04-01T07:23:23.959Z,21.5
2018-04-01T07:24:24.025Z,21.5
2018-04-01T07:25:23.973Z,21.5
2018-04-01T07:26:23.980Z,21.5
2018-04-01T07:27:23.976Z,21.5
2018-04-01T07:28:24.005Z,21.5
2018-04-01T07:29:24.038Z,21.5
2018-04-01T07:30:23.986Z,21.5
2018-04-01T07:31:23.981Z,21.5
2018-04-01T07:32:23.988Z,21.5
2018-04-01T07:33:23.991Z,21.5
2018-04-01T07:34:23.976Z,21.5
2018-04-01T07:35:23.980Z,21.5
2018-04-01T07:36:23.993Z,21.5
2018-04-01T07:37:23.986Z,21.5
2018-04-01T07:38:23.958Z,21.5
2018-04-01T07:39:23.982Z,21.5
2018-04-01T07:40:23.973Z,21.5
2018-04-01T07:41:23.983Z,21.5
2018-04-01T07:42:24.163Z,21.5
2018-04-01T07:43:24.032Z,21.5
2018-04-01T07:44:23.988Z,21.5
2018-04-01T07:45:24.000Z,21.5
2018-04-01T07:46:24.015Z,21.5
2018-04-01T07:47:23.970Z,21.5
2018-04-01T07:48:24.007Z,21.5
2018-04-01T07:49:23.975Z,21.5
2018-04-01T07:50:23.965Z,21.5
2018-04-01T07:51:23.958Z,21.5
2018-04-01T07:52:23.985Z,21.5
2018-04-01T07:53:23.996Z,21.5
2018-04-01T07:54:23.979Z,21.75
2018-04-01T07:55:23.969Z,21.75
2018-04-01T07:56:24.049Z,21.75
2018-04-01T07:57:24.052Z,21.75
2018-04-01T07:58:24.112Z,21.5
2018-04-01T07:59:23.983Z,21.75
2018-04-01T08:00:24.041Z,21.5
2018-04-01T08:01:23.971Z,21.5
2018-04-01T08:02:23.979Z,21.5
2018-04-01T08:03:24.005Z,21.5
2018-04-01T08:04:23.976Z,21.75
2018-04-01T08:05:23.960Z,21.75
2018-04-01T08:06:23.977Z,21.5
2018-04-01T08:07:23.998Z,21.75
2018-04-01T08:08:23.946Z,21.75
2018-04-01T08:09:23.997Z,21.75
2018-04-01T08:10:23.944Z,21.5
2018-04-01T08:11:23.974Z,21.75
2018-04-01T08:12:23.990Z,21.75
2018-04-01T08:13:23.964Z,21.75
2018-04-01T08:14:23.984Z,21.75
2018-04-01T08:15:23.974Z,21.75
2018-04-01T08:16:23.959Z,21.75
2018-04-01T08:17:23.951Z,21.75
2018-04-01T08:18:23.958Z,21.75
2018-04-01T08:19:23.981Z,21.75
2018-04-01T08:20:23.941Z,21.75
2018-04-01T08:21:23.966Z,21.75
2018-04-01T08:22:23.976Z,21.75
2018-04-01T08:23:24.138Z,21.75
2018-04-01T08:24:23.935Z,21.75
2018-04-01T08:25:23.966Z,21.75
2018-04-01T08:26:23.936Z,21.75
2018-04-01T08:27:23.941Z,21.75
2018-04-01T08:28:23.965Z,21.75
2018-04-01T08:29:23.958Z,21.75
2018-04-01T08:30:23.960Z,21.75
2018-04-01T08:31:24.062Z,21.75
2018-04-01T08:32:23.948Z,21.75
2018-04-01T08:33:23.991Z,21.75
2018-04-01T08:34:23.961Z,21.75
2018-04-01T08:35:23.964Z,21.75
2018-04-01T08:36:23.984Z,21.75
2018-04-01T08:37:23.962Z,21.75
2018-04-01T08:38:23.948Z,21.75
2018-04-01T08:39:23.959Z,21.75
2018-04-01T08:40:23.937Z,21.75
2018-04-01T08:41:23.971Z,21.75
2018-04-01T08:42:23.953Z,21.75
2018-04-01T08:43:23.960Z,21.75
2018-04-01T08:44:23.937Z,21.75
2018-04-01T08:45:23.984Z,21.75
2018-04-01T08:46:23.983Z,21.75
2018-04-01T08:47:23.963Z,21.75
2018-04-01T08:48:23.983Z,21.75
2018-04-01T08:49:23.963Z,21.75
2018-04-01T08:50:23.954Z,21.75
2018-04-01T08:51:23.978Z,21.75
2018-04-01T08:52:23.976Z,21.75
2018-04-01T08:53:23.952Z,21.75
2018-04-01T08:54:23.968Z,21.75
2018-04-01T08:55:23.983Z,21.75
2018-04-01T08:56:23.932Z,21.75
2018-04-01T08:57:23.928Z,21.75
2018-04-01T08:58:23.983Z,21.75
2018-04-01T08:59:24.138Z,21.75
2018-04-01T09:00:23.967Z,21.75
2018-04-01T09:01:23.985Z,21.75
2018-04-01T09:02:24.002Z,21.75
2018-04-01T09:03:23.961Z,21.75
2018-04-01T09:04:23.924Z,21.75
2018-04-01T09:05:23.984Z,21.75
2018-04-01T09:06:23.969Z,21.75
2018-04-01T09:07:24.046Z,21.75
2018-04-01T09:08:24.040Z,21.75
2018-04-01T09:09:26.526Z,21.75
2018-04-01T09:10:24.205Z,21.75
2018-04-01T09:11:24.027Z,21.75
2018-04-01T09:12:23.969Z,21.75
2018-04-01T09:13:23.934Z,21.75
2018-04-01T09:14:23.943Z,21.75
2018-04-01T09:15:23.927Z,21.75
2018-04-01T09:16:23.973Z,21.75
2018-04-01T09:17:23.954Z,21.75
2018-04-01T09:18:23.952Z,21.75
2018-04-01T09:19:23.931Z,21.75
2018-04-01T09:20:23.924Z,21.75
2018-04-01T09:21:23.978Z,21.75
2018-04-01T09:22:23.958Z,21.75
2018-04-01T09:23:23.941Z,21.75
2018-04-01T09:24:23.940Z,21.75
2018-04-01T09:25:23.926Z,21.75
2018-04-01T09:26:23.949Z,21.75
2018-04-01T09:27:23.935Z,21.75
2018-04-01T09:28:23.933Z,21.75
2018-04-01T09:29:23.946Z,21.75
2018-04-01T09:30:23.920Z,21.75
2018-04-01T09:31:23.918Z,21.75
2018-04-01T09:32:23.981Z,21.75
2018-04-01T09:33:23.989Z,21.75
2018-04-01T09:34:23.914Z,21.75
2018-04-01T09:35:23.928Z,21.75
2018-04-01T09:36:23.952Z,22
2018-04-01T09:37:23.968Z,22
2018-04-01T09:38:23.948Z,22
2018-04-01T09:39:23.930Z,22
2018-04-01T09:40:23.925Z,22
2018-04-01T09:41:23.929Z,22
2018-04-01T09:42:23.956Z,22
2018-04-01T09:43:23.914Z,22
2018-04-01T09:44:24.008Z,22
2018-04-01T09:45:23.927Z,22
2018-04-01T09:46:23.951Z,22
2018-04-01T09:47:24.086Z,22
2018-04-01T09:48:23.922Z,22
2018-04-01T09:49:23.952Z,22
2018-04-01T09:50:23.952Z,22
2018-04-01T09:51:23.941Z,22
2018-04-01T09:52:23.968Z,22
2018-04-01T09:53:23.922Z,22
2018-04-01T09:54:25.629Z,22
2018-04-01T09:55:23.933Z,22
2018-04-01T09:56:24.012Z,22
2018-04-01T09:57:24.073Z,22
2018-04-01T09:58:24.034Z,22
2018-04-01T09:59:23.943Z,22
2018-04-01T10:00:23.934Z,22.25
2018-04-01T10:01:23.932Z,22
2018-04-01T10:02:23.927Z,22
2018-04-01T10:03:24.090Z,22
2018-04-01T10:04:23.952Z,22
2018-04-01T10:05:23.909Z,22
2018-04-01T10:06:23.945Z,22
2018-04-01T10:07:23.939Z,22
2018-04-01T10:08:23.923Z,22
2018-04-01T10:09:23.933Z,22
2018-04-01T10:10:23.924Z,22
2018-04-01T10:11:25.162Z,22
2018-04-01T10:12:23.940Z,22
2018-04-01T10:13:28.970Z,22
2018-04-01T10:14:23.926Z,22
2018-04-01T10:15:23.939Z,22
2018-04-01T10:16:23.912Z,22
2018-04-01T10:17:23.914Z,22
2018-04-01T10:18:23.940Z,22
2018-04-01T10:19:24.621Z,22
2018-04-01T10:20:23.913Z,22
2018-04-01T10:21:23.946Z,22
2018-04-01T10:22:23.933Z,22
2018-04-01T10:23:23.932Z,22
2018-04-01T10:24:23.907Z,21.75
2018-04-01T10:25:23.946Z,22
2018-04-01T10:26:23.951Z,22
2018-04-01T10:27:23.978Z,21.75
2018-04-01T10:28:23.946Z,22
2018-04-01T10:29:23.923Z,22
2018-04-01T10:30:23.939Z,22
2018-04-01T10:31:23.938Z,22
2018-04-01T10:32:23.933Z,22
2018-04-01T10:33:23.930Z,22
2018-04-01T10:34:23.918Z,22
2018-04-01T10:35:23.988Z,22
2018-04-01T10:36:23.924Z,22
2018-04-01T10:37:23.925Z,22
2018-04-01T10:38:23.937Z,22
2018-04-01T10:39:23.930Z,22
2018-04-01T10:40:23.932Z,22
2018-04-01T10:41:23.927Z,22
2018-04-01T10:42:23.933Z,22
2018-04-01T10:43:24.192Z,22
2018-04-01T10:44:23.904Z,22
2018-04-01T10:45:23.931Z,22
2018-04-01T10:46:23.898Z,22
2018-04-01T10:47:23.931Z,22
2018-04-01T10:48:24.000Z,22.25
2018-04-01T10:49:24.014Z,22.25
2018-04-01T10:50:23.892Z,22.25
2018-04-01T10:51:23.926Z,22.25
2018-04-01T10:52:23.920Z,22.25
2018-04-01T10:53:23.910Z,22.25
2018-04-01T10:54:23.922Z,22.25
2018-04-01T10:55:23.931Z,22.25
2018-04-01T10:56:23.921Z,22.25
2018-04-01T10:57:23.931Z,22.25
2018-04-01T10:58:23.936Z,22.25
2018-04-01T10:59:23.954Z,22.25
2018-04-01T11:00:23.912Z,22.25
2018-04-01T11:01:23.914Z,22.25
2018-04-01T11:02:23.900Z,22.25
2018-04-01T11:03:23.964Z,22.25
2018-04-01T11:04:23.930Z,22.25
2018-04-01T11:05:23.741Z,22.25
2018-04-01T11:06:23.972Z,22.25
2018-04-01T11:07:23.960Z,22.25
2018-04-01T11:08:23.927Z,22.25
2018-04-01T11:09:23.907Z,22.25
2018-04-01T11:10:23.922Z,22.25
2018-04-01T11:11:24.123Z,22.25
2018-04-01T11:12:23.903Z,22.25
2018-04-01T11:13:23.948Z,22.25
2018-04-01T11:14:23.907Z,22.25
2018-04-01T11:15:23.932Z,22.25
2018-04-01T11:16:23.907Z,22.25
2018-04-01T11:17:23.929Z,22.25
2018-04-01T11:18:23.955Z,22.25
2018-04-01T11:19:23.920Z,22.25
2018-04-01T11:20:23.922Z,22.25
2018-04-01T11:21:23.897Z,22.25
2018-04-01T11:22:23.910Z,22.25
2018-04-01T11:23:23.898Z,22.25
2018-04-01T11:24:23.924Z,22.25
2018-04-01T11:25:24.017Z,22.25
2018-04-01T11:26:24.001Z,22.25
2018-04-01T11:27:23.914Z,22.25
2018-04-01T11:28:23.944Z,22.25
2018-04-01T11:29:23.908Z,22.25
2018-04-01T11:30:23.913Z,22.25
2018-04-01T11:31:23.909Z,22.25
2018-04-01T11:32:23.907Z,22.25
2018-04-01T11:33:23.894Z,22.25
2018-04-01T11:34:23.927Z,22.25
2018-04-01T11:35:23.896Z,22.25
2018-04-01T11:36:23.980Z,22.25
2018-04-01T11:37:24.001Z,22.25
2018-04-01T11:38:23.902Z,22.25
2018-04-01T11:39:23.914Z,22.25
2018-04-01T11:40:23.940Z,22.25
2018-04-01T11:41:23.903Z,22.25
2018-04-01T11:42:23.886Z,22.25
2018-04-01T11:43:23.906Z,22.25
2018-04-01T11:44:23.898Z,22.25
2018-04-01T11:45:23.896Z,22.25
2018-04-01T11:46:23.909Z,22.25
2018-04-01T11:47:23.898Z,22.25
2018-04-01T11:48:23.905Z,22.25
2018-04-01T11:49:23.923Z,22.25
2018-04-01T11:50:23.898Z,22.25
2018-04-01T11:51:23.893Z,22.25
2018-04-01T11:52:23.903Z,22.25
2018-04-01T11:53:23.899Z,22.25
2018-04-01T11:54:23.868Z,22.25
2018-04-01T11:55:23.951Z,22.25
2018-04-01T11:56:23.882Z,22.25
2018-04-01T11:57:23.901Z,22.25
2018-04-01T11:58:24.004Z,22.25
2018-04-01T11:59:24.006Z,22.25
2018-04-01T12:00:23.912Z,22.25
2018-04-01T12:01:23.911Z,22.25
2018-04-01T12:02:23.893Z,22.25
2018-04-01T12:03:23.890Z,22.25
2018-04-01T12:04:23.876Z,22.25
2018-04-01T12:05:23.892Z,22.25
2018-04-01T12:06:23.923Z,22.25
2018-04-01T12:07:23.901Z,22.25
2018-04-01T12:08:23.931Z,22
2018-04-01T12:09:23.876Z,22
2018-04-01T12:10:23.868Z,22
2018-04-01T12:11:23.968Z,22
2018-04-01T12:12:23.885Z,22
2018-04-01T12:13:23.906Z,22
2018-04-01T12:14:24.078Z,22
2018-04-01T12:15:23.901Z,22
2018-04-01T12:16:24.138Z,22
2018-04-01T12:17:23.923Z,22
2018-04-01T12:18:23.891Z,22
2018-04-01T12:19:23.884Z,22
2018-04-01T12:20:23.913Z,22
2018-04-01T12:21:23.902Z,22
2018-04-01T12:22:23.914Z,22
2018-04-01T12:23:23.877Z,22
2018-04-01T12:24:23.891Z,22
2018-04-01T12:25:23.875Z,22
2018-04-01T12:26:23.880Z,22
2018-04-01T12:27:23.907Z,22
2018-04-01T12:28:23.899Z,22
2018-04-01T12:29:23.883Z,22
2018-04-01T12:30:23.885Z,22
2018-04-01T12:31:23.904Z,22
2018-04-01T12:32:23.875Z,22
2018-04-01T12:33:23.898Z,22
2018-04-01T12:34:23.891Z,22
2018-04-01T12:35:23.878Z,22
2018-04-01T12:36:23.903Z,22
2018-04-01T12:37:23.893Z,22
2018-04-01T12:38:23.887Z,22
2018-04-01T12:39:23.943Z,22
2018-04-01T12:40:23.896Z,22
2018-04-01T12:41:23.869Z,22
2018-04-01T12:42:23.917Z,22
2018-04-01T12:43:23.875Z,22
2018-04-01T12:44:23.868Z,22
2018-04-01T12:45:23.862Z,22
2018-04-01T12:46:23.867Z,22
2018-04-01T12:47:23.862Z,22
2018-04-01T12:48:23.902Z,22
2018-04-01T12:49:26.051Z,22
2018-04-01T12:50:23.866Z,22
2018-04-01T12:51:23.900Z,22
2018-04-01T12:52:23.913Z,22
2018-04-01T12:53:23.850Z,22.25
2018-04-01T12:54:23.891Z,22
2018-04-01T12:55:23.870Z,22
2018-04-01T12:56:23.866Z,22.25
2018-04-01T12:57:23.914Z,22
2018-04-01T12:58:23.873Z,22
2018-04-01T12:59:23.865Z,22.25
2018-04-01T13:00:23.911Z,22
2018-04-01T13:01:23.885Z,22.25
2018-04-01T13:02:23.967Z,22.25
2018-04-01T13:03:23.859Z,22.25
2018-04-01T13:04:23.911Z,22.25
2018-04-01T13:05:23.856Z,22.25
2018-04-01T13:06:23.853Z,22.25
2018-04-01T13:07:23.938Z,22.25
2018-04-01T13:08:23.874Z,22.25
2018-04-01T13:09:23.885Z,22.25
2018-04-01T13:10:23.976Z,22.25
2018-04-01T13:11:23.875Z,22.25
2018-04-01T13:12:23.870Z,22.25
2018-04-01T13:13:23.880Z,22.25
2018-04-01T13:14:23.893Z,22.25
2018-04-01T13:15:23.893Z,22
2018-04-01T13:16:23.915Z,22.25
2018-04-01T13:17:24.038Z,22.25
2018-04-01T13:18:23.882Z,22.25